createdAt,value
2023-02-06T00:02:54.708Z,184.79115
2023-02-06T00:07:56.435Z,150.7096
2023-02-06T00:12:58.042Z,116.5729
2023-02-06T00:17:59.755Z,102.6307
2023-02-06T00:23:01.411Z,87.2129
2023-02-06T00:28:03.020Z,79.81775
2023-02-06T00:33:04.770Z,70.4678
2023-02-06T00:38:06.380Z,55.4189
2023-02-06T00:43:08.013Z,39.2633
2023-02-06T00:48:09.762Z,28.43775
2023-02-06T00:53:11.461Z,16.0263
2023-02-06T00:58:13.096Z,10.82555
2023-02-06T01:03:14.762Z,7.15555
2023-02-06T01:08:16.440Z,1.53075
2023-02-06T01:13:18.080Z,0.4148
2023-02-06T01:18:19.760Z,0
2023-02-06T01:23:21.426Z,0
2023-02-06T01:28:23.054Z,0
2023-02-06T01:33:24.732Z,0
2023-02-06T01:38:26.360Z,0
2023-02-06T01:43:28.042Z,0
2023-02-06T01:48:29.807Z,0
2023-02-06T01:53:31.426Z,0
2023-02-06T01:58:33.121Z,0
2023-02-06T02:03:34.845Z,0
2023-02-06T02:08:36.488Z,0
2023-02-06T02:13:38.295Z,0
2023-02-06T02:18:40.087Z,0
2023-02-06T02:23:41.686Z,0
2023-02-06T02:28:43.451Z,0
2023-02-06T02:33:45.134Z,0
2023-02-06T02:38:46.767Z,0
2023-02-06T02:43:48.402Z,0
2023-02-06T02:48:50.267Z,0
2023-02-06T02:53:52.923Z,0
2023-02-06T02:58:54.816Z,0
2023-02-06T03:03:56.580Z,0
2023-02-06T03:08:58.227Z,0
2023-02-06T03:13:59.832Z,0
2023-02-06T03:19:01.951Z,0
2023-02-06T03:24:03.612Z,0
2023-02-06T03:29:05.656Z,0
2023-02-06T03:34:08.009Z,0
2023-02-06T03:39:09.678Z,0
2023-02-06T03:44:11.299Z,0
2023-02-06T03:49:12.989Z,0
2023-02-06T03:54:14.623Z,0
2023-02-06T03:59:16.888Z,0
2023-02-06T04:04:18.849Z,0
2023-02-06T04:09:20.474Z,0
2023-02-06T04:14:22.085Z,0
2023-02-06T04:19:23.820Z,0
2023-02-06T04:24:25.460Z,0
2023-02-06T04:29:27.117Z,0
2023-02-06T04:34:28.704Z,0
2023-02-06T04:39:30.376Z,0
2023-02-06T04:44:32.387Z,0
2023-02-06T04:49:33.960Z,0
2023-02-06T04:54:35.561Z,0
2023-02-06T04:59:37.166Z,0
2023-02-06T05:04:38.778Z,0
2023-02-06T05:09:40.458Z,0
2023-02-06T05:14:42.130Z,0
2023-02-06T05:19:43.810Z,0
2023-02-06T05:24:45.419Z,0
2023-02-06T05:29:47.003Z,0
2023-02-06T05:34:48.597Z,0
2023-02-06T05:39:50.181Z,0
2023-02-06T05:44:51.745Z,0
2023-02-06T05:49:53.337Z,0
2023-02-06T05:54:54.978Z,0
2023-02-06T05:59:56.676Z,0
2023-02-06T06:04:58.312Z,0
2023-02-06T06:09:59.981Z,0
2023-02-06T06:15:01.614Z,0
2023-02-06T06:20:03.206Z,0
2023-02-06T06:25:04.810Z,0
2023-02-06T06:30:06.482Z,0
2023-02-06T06:35:08.145Z,0
2023-02-06T06:40:09.788Z,0
2023-02-06T06:45:11.440Z,0
2023-02-06T06:50:13.071Z,0
2023-02-06T06:55:14.789Z,0
2023-02-06T07:00:16.684Z,0
2023-02-06T07:05:18.568Z,0
2023-02-06T07:10:20.223Z,0
2023-02-06T07:15:21.859Z,0
2023-02-06T07:20:23.562Z,0
2023-02-06T07:25:25.168Z,0
2023-02-06T07:30:26.814Z,0
2023-02-06T07:35:28.455Z,0
2023-02-06T07:40:43.976Z,0
2023-02-06T07:45:46.353Z,0
2023-02-06T07:50:47.963Z,0
2023-02-06T07:55:49.695Z,0
2023-02-06T08:00:51.383Z,0
2023-02-06T08:05:53.015Z,0
2023-02-06T08:10:54.582Z,0
2023-02-06T08:15:56.171Z,0
2023-02-06T08:20:57.786Z,0
2023-02-06T08:25:59.373Z,0
2023-02-06T08:31:01.070Z,0
2023-02-06T08:36:02.725Z,0
2023-02-06T08:41:04.316Z,0
2023-02-06T08:46:06.027Z,0
2023-02-06T08:51:07.605Z,0
2023-02-06T08:56:09.232Z,0
2023-02-06T09:01:10.874Z,0
2023-02-06T09:06:12.495Z,0
2023-02-06T09:11:14.160Z,0
2023-02-06T09:16:15.833Z,0
2023-02-06T09:21:17.537Z,0
2023-02-06T09:26:19.413Z,0
2023-02-06T09:31:21.072Z,0
2023-02-06T09:36:22.683Z,0
2023-02-06T09:41:24.280Z,0
2023-02-06T09:46:26.795Z,0
2023-02-06T09:51:28.481Z,0
2023-02-06T09:56:30.229Z,0
2023-02-06T10:01:31.852Z,0
2023-02-06T10:06:33.780Z,0
2023-02-06T10:11:35.387Z,0
2023-02-06T10:16:37.007Z,0
2023-02-06T10:21:38.616Z,0
2023-02-06T10:26:40.250Z,0
2023-02-06T10:31:41.943Z,0
2023-02-06T10:36:45.983Z,0
2023-02-06T10:41:47.803Z,0
2023-02-06T10:46:49.437Z,0
2023-02-06T10:51:51.026Z,0
2023-02-06T10:56:52.899Z,0
2023-02-06T11:01:54.680Z,0
2023-02-06T11:06:56.347Z,0
2023-02-06T11:11:57.952Z,0
2023-02-06T11:16:59.576Z,0
2023-02-06T11:22:01.251Z,0
2023-02-06T11:27:02.825Z,0
2023-02-06T11:32:04.484Z,0
2023-02-06T11:37:06.220Z,0
2023-02-06T11:42:07.849Z,0
2023-02-06T11:47:09.438Z,0
2023-02-06T11:52:11.179Z,0
2023-02-06T11:57:12.774Z,0
2023-02-06T12:02:14.410Z,0
2023-02-06T12:07:16.031Z,0
2023-02-06T12:12:17.854Z,0
2023-02-06T12:17:19.426Z,0
2023-02-06T12:22:21.132Z,0
2023-02-06T12:27:22.724Z,0
2023-02-06T12:32:24.285Z,0
2023-02-06T12:37:26.062Z,0
2023-02-06T12:42:27.682Z,0
2023-02-06T12:47:29.408Z,0
2023-02-06T12:52:31.206Z,0
2023-02-06T12:57:32.786Z,0
2023-02-06T13:02:34.589Z,0
2023-02-06T13:07:44.767Z,0
2023-02-06T13:12:50.852Z,0
2023-02-06T13:17:52.570Z,0
2023-02-06T13:22:54.254Z,0
2023-02-06T13:27:55.987Z,0
2023-02-06T13:32:57.751Z,0
2023-02-06T13:37:59.342Z,0
2023-02-06T13:43:01.083Z,0
2023-02-06T13:48:02.730Z,0
2023-02-06T13:53:04.304Z,0
2023-02-06T13:58:05.892Z,0
2023-02-06T14:03:07.599Z,0
2023-02-06T14:08:09.426Z,0
2023-02-06T14:13:11.106Z,0
2023-02-06T14:18:12.723Z,0
2023-02-06T14:23:14.382Z,0
2023-02-06T14:28:16.128Z,0
2023-02-06T14:33:18.132Z,0
2023-02-06T14:38:19.723Z,0
2023-02-06T14:43:21.349Z,0
2023-02-06T14:48:23.201Z,0
2023-02-06T14:53:24.852Z,0
2023-02-06T14:58:26.534Z,0.4148
2023-02-06T15:03:28.215Z,1.53075
2023-02-06T15:08:31.540Z,2.87705
2023-02-06T15:13:34.296Z,7.28485
2023-02-06T15:18:35.876Z,10.2722
2023-02-06T15:23:37.586Z,14.18225
2023-02-06T15:28:39.195Z,14.73515
2023-02-06T15:33:40.900Z,20.27685
2023-02-06T15:38:42.681Z,20.8298
2023-02-06T15:43:44.278Z,33.69365
2023-02-06T15:48:45.903Z,31.794
2023-02-06T15:53:48.677Z,40.79405
2023-02-06T15:58:50.511Z,52.17295
2023-02-06T16:03:52.313Z,51.9885
2023-02-06T16:08:54.219Z,55.10515
2023-02-06T16:13:55.886Z,65.1929
2023-02-06T16:18:57.539Z,67.6459
2023-02-06T16:23:59.220Z,80.79515
2023-02-06T16:29:00.847Z,84.2807
2023-02-06T16:34:02.587Z,84.83405
2023-02-06T16:39:04.912Z,95.8992
2023-02-06T16:44:06.638Z,103.6081
2023-02-06T16:49:08.229Z,112.47885
2023-02-06T16:54:09.879Z,123.3044
2023-02-06T16:59:12.372Z,120.6118
2023-02-06T17:04:14.183Z,139.75475
2023-02-06T17:09:15.933Z,172.3607
2023-02-06T17:14:17.646Z,199.21255
2023-02-06T17:19:19.502Z,172.41585
2023-02-06T17:24:21.142Z,139.8099
2023-02-06T17:29:24.053Z,143.4799
2023-02-06T17:34:26.093Z,112.71845
2023-02-06T17:39:27.698Z,178.8336
2023-02-06T17:44:29.308Z,209.5399
2023-02-06T17:49:31.077Z,234.43695
2023-02-06T17:54:32.764Z,296.034
2023-02-06T17:59:34.465Z,317.26105
2023-02-06T18:04:36.081Z,361.17175
2023-02-06T18:09:37.889Z,426.25435
2023-02-06T18:14:39.544Z,467.0484
2023-02-06T18:19:41.173Z,375.85175
2023-02-06T18:24:42.891Z,324.95095
2023-02-06T18:29:49.696Z,381.21795
2023-02-06T18:34:52.069Z,457.31055
2023-02-06T18:39:53.662Z,495.59645
2023-02-06T18:44:55.418Z,489.97165
2023-02-06T18:49:57.091Z,466.47605
2023-02-06T18:54:58.699Z,557.4141
2023-02-06T19:00:00.377Z,686.1417
2023-02-06T19:05:02.088Z,541.5171
2023-02-06T19:10:03.682Z,587.21715
2023-02-06T19:15:05.357Z,527.02155
2023-02-06T19:20:07.000Z,638.83675
2023-02-06T19:25:10.299Z,738.887
2023-02-06T19:30:12.634Z,1137.8673
2023-02-06T19:35:14.263Z,853.0069
2023-02-06T19:40:15.910Z,703.18155
2023-02-06T19:45:17.520Z,711.36965
2023-02-06T19:50:19.249Z,709.91305
2023-02-06T19:55:20.952Z,626.97865
2023-02-06T20:00:22.771Z,676.9572
2023-02-06T20:05:24.466Z,812.95065
2023-02-06T20:10:26.845Z,798.0862
2023-02-06T20:15:29.060Z,800.7788
2023-02-06T20:20:30.747Z,725.11025
2023-02-06T20:25:32.944Z,675.7592
2023-02-06T20:30:34.682Z,748.7903
2023-02-06T20:35:36.433Z,739.2559
2023-02-06T20:40:38.331Z,919.16005
2023-02-06T20:45:40.162Z,799.1929
2023-02-06T20:50:41.934Z,878.9555
2023-02-06T20:55:43.632Z,883.91665
2023-02-06T21:00:45.579Z,816.3069
2023-02-06T21:05:47.191Z,805.59165
2023-02-06T21:10:48.758Z,661.6687
2023-02-06T21:15:50.391Z,700.4528
2023-02-06T21:20:52.055Z,658.2573
2023-02-06T21:25:53.910Z,649.01765
2023-02-06T21:30:55.693Z,607.2462
2023-02-06T21:35:57.507Z,556.65915
2023-02-06T21:40:59.264Z,548.34175
2023-02-06T21:46:00.938Z,521.8588
2023-02-06T21:51:02.598Z,570.73065
2023-02-06T21:56:04.298Z,577.94135
2023-02-06T22:01:08.521Z,528.51615
2023-02-06T22:06:10.696Z,493.66065
2023-02-06T22:11:12.329Z,513.48625
2023-02-06T22:16:14.071Z,489.0874
2023-02-06T22:21:15.868Z,458.6207
2023-02-06T22:26:17.509Z,470.79255
2023-02-06T22:31:19.202Z,412.4966
2023-02-06T22:36:21.093Z,415.63225
2023-02-06T22:41:22.757Z,613.0193
2023-02-06T22:46:24.636Z,659.2727
2023-02-06T22:51:26.323Z,600.60785
2023-02-06T22:56:28.006Z,540.30195
2023-02-06T23:01:29.617Z,486.0449
2023-02-06T23:06:31.313Z,368.53075
2023-02-06T23:11:33.044Z,367.79295
2023-02-06T23:16:34.717Z,346.98995
2023-02-06T23:21:36.364Z,258.098
2023-02-06T23:26:37.976Z,204.20985
2023-02-06T23:31:39.719Z,187.9991
2023-02-06T23:36:41.363Z,120.64795
2023-02-06T23:41:42.970Z,93.3169
2023-02-06T23:46:44.624Z,81.51395
2023-02-06T23:51:46.464Z,80.1125
2023-02-06T23:56:48.129Z,68.43885
